createdAt,value
2018-10-19T00:01:02.201Z,11.80
2018-10-19T00:03:42.247Z,11.70
2018-10-19T00:06:15.889Z,11.70
2018-10-19T00:08:50.376Z,11.70
2018-10-19T00:11:23.988Z,11.70
2018-10-19T00:13:57.477Z,11.70
2018-10-19T00:16:31.090Z,11.70
2018-10-19T00:19:05.550Z,11.70
2018-10-19T00:21:39.183Z,11.70
2018-10-19T00:24:12.566Z,11.70
2018-10-19T00:26:52.631Z,11.70
2018-10-19T00:29:26.162Z,11.70
2018-10-19T00:31:59.737Z,11.70
2018-10-19T00:34:33.481Z,11.70
2018-10-19T00:37:07.069Z,11.70
2018-10-19T00:39:41.531Z,11.70
2018-10-19T00:42:15.186Z,11.70
2018-10-19T00:44:48.961Z,11.70
2018-10-19T00:47:22.442Z,11.70
2018-10-19T00:49:56.071Z,11.70
2018-10-19T00:52:29.631Z,11.70
2018-10-19T00:55:03.319Z,11.70
2018-10-19T00:57:36.875Z,11.70
2018-10-19T01:00:10.513Z,11.70
2018-10-19T01:02:43.940Z,11.70
2018-10-19T01:05:17.523Z,11.70
2018-10-19T01:07:57.635Z,11.70
2018-10-19T01:10:31.195Z,11.70
2018-10-19T01:13:05.805Z,11.70
2018-10-19T01:15:39.365Z,11.70
2018-10-19T01:18:19.289Z,11.70
2018-10-19T01:20:55.895Z,11.70
2018-10-19T01:23:29.486Z,11.70
2018-10-19T01:26:03.228Z,11.60
2018-10-19T01:28:36.621Z,11.60
2018-10-19T01:31:10.061Z,11.70
2018-10-19T01:33:43.629Z,11.70
2018-10-19T01:36:17.195Z,11.70
2018-10-19T01:38:51.682Z,11.70
2018-10-19T01:41:25.146Z,11.70
2018-10-19T01:43:58.772Z,11.60
2018-10-19T01:46:32.289Z,11.60
2018-10-19T01:49:06.835Z,11.60
2018-10-19T01:51:40.411Z,11.60
2018-10-19T01:54:20.437Z,11.60
2018-10-19T01:56:54.150Z,11.60
2018-10-19T01:59:27.692Z,11.60
2018-10-19T02:02:01.224Z,11.60
2018-10-19T02:04:34.763Z,11.60
2018-10-19T02:07:09.391Z,11.60
2018-10-19T02:09:42.866Z,11.60
2018-10-19T02:12:16.554Z,11.50
2018-10-19T02:14:50.245Z,11.50
2018-10-19T02:17:24.874Z,11.50
2018-10-19T02:19:58.365Z,11.50
2018-10-19T02:22:32.060Z,11.50
2018-10-19T02:25:05.617Z,11.50
2018-10-19T02:27:39.161Z,11.40
2018-10-19T02:30:12.690Z,11.40
2018-10-19T02:32:46.308Z,11.40
2018-10-19T02:35:26.218Z,11.40
2018-10-19T02:37:59.752Z,11.40
2018-10-19T02:40:33.396Z,11.40
2018-10-19T02:43:06.795Z,11.40
2018-10-19T02:45:46.793Z,11.40
2018-10-19T02:48:26.593Z,11.40
2018-10-19T02:51:06.546Z,11.40
2018-10-19T02:53:40.045Z,11.40
2018-10-19T02:56:13.730Z,11.40
2018-10-19T02:58:53.760Z,11.40
2018-10-19T03:01:27.386Z,11.40
2018-10-19T03:04:00.897Z,11.40
2018-10-19T03:06:34.472Z,11.30
2018-10-19T03:09:09.225Z,11.30
2018-10-19T03:11:42.718Z,11.30
2018-10-19T03:14:22.536Z,11.30
2018-10-19T03:16:56.050Z,11.20
2018-10-19T03:19:29.505Z,11.20
2018-10-19T03:22:09.503Z,11.20
2018-10-19T03:24:43.107Z,11.20
2018-10-19T03:27:16.693Z,11.10
2018-10-19T03:29:50.065Z,11.10
2018-10-19T03:33:27.250Z,11.00
2018-10-19T03:36:01.634Z,11.00
2018-10-19T03:38:35.211Z,10.90
2018-10-19T03:41:08.869Z,10.90
2018-10-19T03:43:42.442Z,11.00
2018-10-19T03:46:22.321Z,10.90
2018-10-19T03:49:02.498Z,10.90
2018-10-19T03:51:36.101Z,10.90
2018-10-19T03:54:09.777Z,10.90
2018-10-19T03:56:43.448Z,10.90
2018-10-19T03:59:18.038Z,10.80
2018-10-19T04:01:51.557Z,10.90
2018-10-19T04:04:25.316Z,10.80
2018-10-19T04:06:58.897Z,10.80
2018-10-19T04:09:32.447Z,10.80
2018-10-19T04:12:06.176Z,10.70
2018-10-19T04:14:39.911Z,10.70
2018-10-19T04:17:13.536Z,10.70
2018-10-19T04:19:47.123Z,10.70
2018-10-19T04:22:20.854Z,10.60
2018-10-19T04:25:00.829Z,10.60
2018-10-19T04:27:34.452Z,10.60
2018-10-19T04:30:08.132Z,10.50
2018-10-19T04:32:48.754Z,10.50
2018-10-19T04:35:22.456Z,10.40
2018-10-19T04:37:56.226Z,10.30
2018-10-19T04:40:29.794Z,10.30
2018-10-19T04:43:03.852Z,10.20
2018-10-19T04:45:37.400Z,10.20
2018-10-19T04:48:17.271Z,10.20
2018-10-19T04:50:50.800Z,10.20
2018-10-19T04:53:25.218Z,10.10
2018-10-19T04:55:58.906Z,10.00
2018-10-19T04:58:32.542Z,10.00
2018-10-19T05:01:12.455Z,9.90
2018-10-19T05:03:46.226Z,9.90
2018-10-19T05:06:19.813Z,9.90
2018-10-19T05:08:53.297Z,9.90
2018-10-19T05:11:26.797Z,9.90
2018-10-19T05:14:00.343Z,9.80
2018-10-19T05:16:35.614Z,9.70
2018-10-19T05:19:09.251Z,9.70
2018-10-19T05:21:42.838Z,9.70
2018-10-19T05:24:16.375Z,9.70
2018-10-19T05:26:56.350Z,9.70
2018-10-19T05:29:29.843Z,9.70
2018-10-19T05:32:03.625Z,9.70
2018-10-19T05:34:37.344Z,9.60
2018-10-19T05:37:10.984Z,9.70
2018-10-19T05:39:44.732Z,9.60
2018-10-19T05:42:18.590Z,9.70
2018-10-19T05:44:52.119Z,9.70
2018-10-19T05:47:32.155Z,9.60
2018-10-19T05:50:06.746Z,9.50
2018-10-19T05:52:46.928Z,9.40
2018-10-19T05:55:21.554Z,9.40
2018-10-19T05:57:56.142Z,9.30
2018-10-19T06:00:30.025Z,9.20
2018-10-19T06:03:03.820Z,9.20
2018-10-19T06:05:37.490Z,9.10
2018-10-19T06:08:17.554Z,9.00
2018-10-19T06:10:51.318Z,9.00
2018-10-19T06:13:25.003Z,9.10
2018-10-19T06:16:05.258Z,9.00
2018-10-19T06:18:45.282Z,9.00
2018-10-19T06:21:25.417Z,9.00
2018-10-19T06:23:59.032Z,8.90
2018-10-19T06:26:32.816Z,9.00
2018-10-19T06:29:12.912Z,9.00
2018-10-19T06:31:46.751Z,9.10
2018-10-19T06:34:26.851Z,9.20
2018-10-19T06:37:00.658Z,9.10
2018-10-19T06:39:34.375Z,9.10
2018-10-19T06:42:14.425Z,9.20
2018-10-19T06:44:54.549Z,9.30
2018-10-19T06:47:28.390Z,9.40
2018-10-19T06:50:02.109Z,9.40
2018-10-19T06:52:35.553Z,9.50
2018-10-19T06:55:17.306Z,9.60
2018-10-19T06:57:57.468Z,9.70
2018-10-19T07:00:31.313Z,9.70
2018-10-19T07:03:08.533Z,9.80
2018-10-19T07:05:42.504Z,9.80
2018-10-19T07:08:16.991Z,9.90
2018-10-19T07:10:50.539Z,10.00
2018-10-19T07:13:30.641Z,10.00
2018-10-19T07:16:05.328Z,10.10
2018-10-19T07:18:39.201Z,10.10
2018-10-19T07:21:13.059Z,10.10
2018-10-19T07:23:53.060Z,10.20
2018-10-19T07:26:33.166Z,10.20
2018-10-19T07:29:06.852Z,10.20
2018-10-19T07:31:41.352Z,10.20
2018-10-19T07:34:22.270Z,10.20
2018-10-19T07:36:55.925Z,10.20
2018-10-19T07:39:36.144Z,10.20
2018-10-19T07:42:09.946Z,10.10
2018-10-19T07:44:50.110Z,10.10
2018-10-19T07:47:30.307Z,10.10
2018-10-19T07:50:04.857Z,10.10
2018-10-19T07:52:39.387Z,10.20
2018-10-19T07:55:13.260Z,10.30
2018-10-19T07:57:47.051Z,10.30
2018-10-19T08:00:27.296Z,10.30
2018-10-19T08:03:01.057Z,10.40
2018-10-19T08:05:41.066Z,10.40
2018-10-19T08:08:15.775Z,10.40
2018-10-19T08:10:55.836Z,10.40
2018-10-19T08:13:29.441Z,10.40
2018-10-19T08:16:09.417Z,10.50
2018-10-19T08:18:49.348Z,10.50
2018-10-19T08:21:23.163Z,10.60
2018-10-19T08:24:03.455Z,10.60
2018-10-19T08:26:37.022Z,10.70
2018-10-19T08:29:10.701Z,10.70
2018-10-19T08:31:44.160Z,10.60
2018-10-19T08:34:19.927Z,10.60
2018-10-19T08:36:53.803Z,10.70
2018-10-19T08:39:27.483Z,10.80
2018-10-19T08:42:01.162Z,10.80
2018-10-19T08:44:41.060Z,10.80
2018-10-19T08:47:15.774Z,10.90
2018-10-19T08:49:49.647Z,11.00
2018-10-19T08:52:23.577Z,11.10
2018-10-19T08:55:03.636Z,11.20
2018-10-19T08:57:37.297Z,11.30
2018-10-19T09:00:11.667Z,11.40
2018-10-19T09:02:45.177Z,11.50
2018-10-19T09:05:19.889Z,11.60
2018-10-19T09:07:59.881Z,11.70
2018-10-19T09:10:33.488Z,11.80
2018-10-19T09:13:13.560Z,12.00
2018-10-19T09:15:47.410Z,12.20
2018-10-19T09:18:28.517Z,12.40
2018-10-19T09:21:02.526Z,12.50
2018-10-19T09:23:36.858Z,12.50
2018-10-19T09:26:10.670Z,12.60
2018-10-19T09:28:50.679Z,12.70
2018-10-19T09:31:25.999Z,13.00
2018-10-19T09:34:05.937Z,13.10
2018-10-19T09:36:39.886Z,13.20
2018-10-19T09:39:14.004Z,13.40
2018-10-19T09:41:47.510Z,13.40
2018-10-19T09:44:22.278Z,13.50
2018-10-19T09:47:02.378Z,13.50
2018-10-19T09:49:42.406Z,13.50
2018-10-19T09:52:22.373Z,13.50
2018-10-19T09:54:56.244Z,13.60
2018-10-19T09:57:36.279Z,13.60
2018-10-19T10:00:17.294Z,13.60
2018-10-19T10:02:50.908Z,13.70
2018-10-19T10:05:25.684Z,13.80
2018-10-19T10:08:05.881Z,13.80
2018-10-19T10:10:45.794Z,13.80
2018-10-19T10:13:25.845Z,13.90
2018-10-19T10:16:05.831Z,14.10
2018-10-19T10:18:45.901Z,14.10
2018-10-19T10:21:19.449Z,14.20
2018-10-19T10:23:53.306Z,14.20
2018-10-19T10:26:33.582Z,14.30
2018-10-19T10:29:07.370Z,14.40
2018-10-19T10:31:41.277Z,14.50
2018-10-19T10:34:14.896Z,14.60
2018-10-19T10:36:48.510Z,14.60
2018-10-19T10:39:22.210Z,14.70
2018-10-19T10:42:02.263Z,14.70
2018-10-19T10:44:42.345Z,14.80
2018-10-19T10:47:16.069Z,14.90
2018-10-19T10:49:49.711Z,14.90
2018-10-19T10:52:30.020Z,14.80
2018-10-19T10:55:04.046Z,14.80
2018-10-19T10:57:37.598Z,14.80
2018-10-19T11:00:11.249Z,14.90
2018-10-19T11:02:44.920Z,14.90
2018-10-19T11:05:24.851Z,14.90
2018-10-19T11:08:05.190Z,15.00
2018-10-19T11:10:39.143Z,15.10
2018-10-19T11:13:12.867Z,15.10
2018-10-19T11:15:46.593Z,15.30
2018-10-19T11:18:21.156Z,15.40
2018-10-19T11:21:01.207Z,15.60
2018-10-19T11:23:41.145Z,15.60
2018-10-19T11:26:21.138Z,15.60
2018-10-19T11:28:54.802Z,15.70
2018-10-19T11:31:29.530Z,15.70
2018-10-19T11:34:04.283Z,15.90
2018-10-19T11:36:37.831Z,16.10
2018-10-19T11:39:11.597Z,16.10
2018-10-19T11:41:45.369Z,16.10
2018-10-19T11:44:19.079Z,16.20
2018-10-19T11:46:52.704Z,16.30
2018-10-19T11:49:26.365Z,16.30
2018-10-19T11:52:00.953Z,16.30
2018-10-19T11:54:35.553Z,16.30
2018-10-19T11:57:09.126Z,16.30
2018-10-19T11:59:42.674Z,16.40
2018-10-19T12:02:16.264Z,16.30
2018-10-19T12:04:49.845Z,16.30
2018-10-19T12:07:23.634Z,16.40
2018-10-19T12:09:57.388Z,16.40
2018-10-19T12:12:31.373Z,16.60
2018-10-19T12:15:12.674Z,16.70
2018-10-19T12:17:46.347Z,16.60
2018-10-19T12:20:20.068Z,16.70
2018-10-19T12:23:00.126Z,16.60
2018-10-19T12:25:40.155Z,16.60
2018-10-19T12:28:14.726Z,16.70
2018-10-19T12:30:54.841Z,16.80
2018-10-19T12:33:28.348Z,17.00
2018-10-19T12:36:02.294Z,17.10
2018-10-19T12:38:36.999Z,17.20
2018-10-19T12:41:10.828Z,17.30
2018-10-19T12:43:44.432Z,17.40
2018-10-19T12:46:46.201Z,17.40
2018-10-19T12:49:22.120Z,17.60
2018-10-19T12:52:02.143Z,17.60
2018-10-19T12:54:36.675Z,17.60
2018-10-19T12:57:10.266Z,17.60
2018-10-19T12:59:43.809Z,17.80
2018-10-19T13:02:18.300Z,18.00
2018-10-19T13:04:58.331Z,18.00
2018-10-19T13:07:32.062Z,18.20
2018-10-19T13:10:05.911Z,18.20
2018-10-19T13:12:39.682Z,17.80
2018-10-19T13:15:19.690Z,17.70
2018-10-19T13:17:53.592Z,18.00
2018-10-19T13:20:33.871Z,18.20
2018-10-19T13:23:08.558Z,19.60
2018-10-19T13:25:43.101Z,21.60
2018-10-19T13:28:16.829Z,22.80
2018-10-19T13:30:50.797Z,24.00
2018-10-19T13:33:24.831Z,24.20
2018-10-19T13:35:58.573Z,23.00
2018-10-19T13:38:38.777Z,21.40
2018-10-19T13:41:19.208Z,20.10
2018-10-19T13:43:53.873Z,19.40
2018-10-19T13:46:27.463Z,19.00
2018-10-19T13:49:01.284Z,19.30
2018-10-19T13:51:35.059Z,19.40
2018-10-19T13:56:56.458Z,19.70
2018-10-19T13:59:31.033Z,20.50
2018-10-19T14:02:04.630Z,21.00
2018-10-19T14:04:38.432Z,20.90
2018-10-19T14:07:18.373Z,21.70
2018-10-19T14:09:58.445Z,22.50
2018-10-19T14:12:32.311Z,23.20
2018-10-19T14:15:07.710Z,23.70
2018-10-19T14:17:41.293Z,24.40
2018-10-19T14:20:14.836Z,25.00
2018-10-19T14:22:48.439Z,25.20
2018-10-19T14:25:22.097Z,25.30
2018-10-19T14:28:02.218Z,24.40
2018-10-19T14:30:35.941Z,22.00
2018-10-19T14:33:10.617Z,20.50
2018-10-19T14:35:50.967Z,19.60
2018-10-19T14:38:25.603Z,19.20
2018-10-19T14:41:05.840Z,18.90
2018-10-19T14:43:46.042Z,18.60
2018-10-19T14:46:20.711Z,18.40
2018-10-19T14:48:54.545Z,18.20
2018-10-19T14:51:28.329Z,17.90
2018-10-19T14:54:03.029Z,17.60
2018-10-19T14:56:36.852Z,17.40
2018-10-19T14:59:17.150Z,17.30
2018-10-19T15:01:57.224Z,17.00
2018-10-19T15:04:31.015Z,16.80
2018-10-19T15:07:04.783Z,16.90
2018-10-19T15:09:38.494Z,16.90
2018-10-19T15:12:12.011Z,16.90
2018-10-19T15:14:45.818Z,16.80
2018-10-19T15:17:19.436Z,16.80
2018-10-19T15:19:53.118Z,16.80
2018-10-19T15:22:33.991Z,16.80
2018-10-19T15:25:14.079Z,16.80
2018-10-19T15:27:53.890Z,16.50
2018-10-19T15:30:27.712Z,16.40
2018-10-19T15:33:08.591Z,16.30
2018-10-19T15:35:48.554Z,16.30
2018-10-19T15:38:22.221Z,16.30
2018-10-19T15:40:55.766Z,16.30
2018-10-19T15:43:29.402Z,16.30
2018-10-19T15:46:03.082Z,16.30
2018-10-19T15:48:36.909Z,16.30
2018-10-19T15:51:10.708Z,16.20
2018-10-19T15:53:44.410Z,16.10
2018-10-19T15:56:17.888Z,15.90
2018-10-19T15:58:57.734Z,15.80
2018-10-19T16:01:37.814Z,15.70
2018-10-19T16:04:17.890Z,15.70
2018-10-19T16:06:52.632Z,15.60
2018-10-19T16:09:32.632Z,15.30
2018-10-19T16:12:09.582Z,15.20
2018-10-19T16:14:43.182Z,15.00
2018-10-19T16:17:17.873Z,15.00
2018-10-19T16:19:57.994Z,14.90
2018-10-19T16:22:32.096Z,15.00
2018-10-19T16:25:06.523Z,14.90
2018-10-19T16:27:40.340Z,14.70
2018-10-19T16:30:14.094Z,14.70
2018-10-19T16:32:47.762Z,14.70
2018-10-19T16:35:22.454Z,14.60
2018-10-19T16:37:57.062Z,14.50
2018-10-19T16:40:30.885Z,14.40
2018-10-19T16:43:04.878Z,14.40
2018-10-19T16:45:44.990Z,14.30
2018-10-19T16:48:18.849Z,14.20
2018-10-19T16:50:52.632Z,14.10
2018-10-19T16:53:26.426Z,14.00
2018-10-19T16:56:00.316Z,14.00
2018-10-19T16:58:34.006Z,14.00
2018-10-19T17:01:14.017Z,13.90
2018-10-19T17:03:47.681Z,13.80
2018-10-19T17:06:27.591Z,13.60
2018-10-19T17:09:01.466Z,13.40
2018-10-19T17:11:35.106Z,13.30
2018-10-19T17:14:09.085Z,13.20
2018-10-19T17:16:55.966Z,13.20
2018-10-19T17:19:29.728Z,13.10
2018-10-19T17:22:09.980Z,13.00
2018-10-19T17:24:43.803Z,13.10
2018-10-19T17:27:17.801Z,13.10
2018-10-19T17:29:51.476Z,13.10
2018-10-19T17:32:25.025Z,13.10
2018-10-19T17:34:58.889Z,13.00
2018-10-19T17:37:38.892Z,13.00
2018-10-19T17:40:16.737Z,12.90
2018-10-19T17:42:56.770Z,12.80
2018-10-19T17:45:37.088Z,12.80
2018-10-19T17:48:15.255Z,12.70
2018-10-19T17:50:55.401Z,12.50
2018-10-19T17:53:35.619Z,12.50
2018-10-19T17:56:09.540Z,12.50
2018-10-19T17:58:43.197Z,12.40
2018-10-19T18:01:16.766Z,12.40
2018-10-19T18:03:50.486Z,12.40
2018-10-19T18:06:24.921Z,12.40
2018-10-19T18:09:09.769Z,12.30
2018-10-19T18:11:49.665Z,12.40
2018-10-19T18:14:23.522Z,12.40
2018-10-19T18:16:57.352Z,12.30
2018-10-19T18:19:37.434Z,12.20
2018-10-19T18:22:11.426Z,12.10
2018-10-19T18:24:45.057Z,12.10
2018-10-19T18:27:18.848Z,12.00
2018-10-19T18:29:54.674Z,11.90
2018-10-19T18:32:28.374Z,11.90
2018-10-19T18:35:09.514Z,12.00
2018-10-19T18:37:49.554Z,12.00
2018-10-19T18:40:23.649Z,11.90
2018-10-19T18:42:57.494Z,11.70
2018-10-19T18:45:31.216Z,11.70
2018-10-19T18:48:04.813Z,11.50
2018-10-19T18:50:38.730Z,11.60
2018-10-19T18:53:19.084Z,11.60
2018-10-19T18:55:52.795Z,11.60
2018-10-19T18:58:33.491Z,11.40
2018-10-19T19:01:13.423Z,11.30
2018-10-19T19:03:53.498Z,11.40
2018-10-19T19:06:33.830Z,11.40
2018-10-19T19:09:14.341Z,11.40
2018-10-19T19:11:53.351Z,11.20
2018-10-19T19:14:33.521Z,11.10
2018-10-19T19:17:08.082Z,11.00
2018-10-19T19:19:41.610Z,11.10
2018-10-19T19:22:15.133Z,11.00
2018-10-19T19:24:54.757Z,10.90
2018-10-19T19:27:32.917Z,10.80
2018-10-19T19:30:13.012Z,10.90
2018-10-19T19:32:58.941Z,10.90
2018-10-19T19:35:33.120Z,10.70
2018-10-19T19:38:06.862Z,10.70
2018-10-19T19:40:46.449Z,10.70
2018-10-19T19:43:26.803Z,10.60
2018-10-19T19:46:00.379Z,10.50
2018-10-19T19:48:46.104Z,10.40
2018-10-19T19:51:19.704Z,10.40
2018-10-19T19:53:54.304Z,10.40
2018-10-19T19:56:28.408Z,10.50
2018-10-19T19:59:02.226Z,10.30
2018-10-19T20:01:42.443Z,10.30
2018-10-19T20:04:15.981Z,10.30
2018-10-19T20:06:49.644Z,10.20
2018-10-19T20:09:23.278Z,10.20
2018-10-19T20:12:03.735Z,10.30
2018-10-19T20:14:37.493Z,10.40
2018-10-19T20:17:12.406Z,10.50
2018-10-19T20:19:52.616Z,10.60
2018-10-19T20:22:32.820Z,10.50
2018-10-19T20:25:07.370Z,10.50
2018-10-19T20:27:41.154Z,10.40
2018-10-19T20:30:15.048Z,10.40
2018-10-19T20:32:48.806Z,10.40
2018-10-19T20:35:22.585Z,10.30
2018-10-19T20:37:56.401Z,10.30
2018-10-19T20:40:36.310Z,10.30
2018-10-19T20:43:11.048Z,10.20
2018-10-19T20:45:51.086Z,10.20
2018-10-19T20:48:25.929Z,10.00
2018-10-19T20:51:00.076Z,9.90
2018-10-19T20:53:33.819Z,9.80
2018-10-19T20:56:07.590Z,9.90
2018-10-19T20:58:41.254Z,10.00
2018-10-19T21:01:14.986Z,9.90
2018-10-19T21:03:49.586Z,9.80
2018-10-19T21:06:24.259Z,9.70
2018-10-19T21:08:57.845Z,9.60
2018-10-19T21:11:31.723Z,9.60
2018-10-19T21:14:11.971Z,9.70
2018-10-19T21:16:46.635Z,9.60
2018-10-19T21:19:21.427Z,9.60
2018-10-19T21:21:55.009Z,9.60
2018-10-19T21:24:29.750Z,9.60
2018-10-19T21:27:03.446Z,9.70
2018-10-19T21:29:37.347Z,9.70
2018-10-19T21:32:11.020Z,9.70
2018-10-19T21:34:44.489Z,9.80
2018-10-19T21:37:18.139Z,9.80
2018-10-19T21:39:52.797Z,9.80
2018-10-19T21:42:26.513Z,9.80
2018-10-19T21:45:00.125Z,9.80
2018-10-19T21:47:40.136Z,9.80
2018-10-19T21:50:14.852Z,9.80
2018-10-19T21:52:50.439Z,9.70
2018-10-19T21:55:23.988Z,9.80
2018-10-19T21:57:58.670Z,9.80
2018-10-19T22:00:32.277Z,9.90
2018-10-19T22:03:06.804Z,9.90
2018-10-19T22:05:40.507Z,9.90
2018-10-19T22:08:14.121Z,9.80
2018-10-19T22:10:54.353Z,9.70
2018-10-19T22:13:28.069Z,9.70
2018-10-19T22:16:02.390Z,9.60
2018-10-19T22:18:35.908Z,9.60
2018-10-19T22:21:09.527Z,9.70
2018-10-19T22:23:49.538Z,9.70
2018-10-19T22:26:24.266Z,9.60
2018-10-19T22:29:04.601Z,9.60
2018-10-19T22:31:38.615Z,9.60
2018-10-19T22:34:12.398Z,9.60
2018-10-19T22:36:46.244Z,9.60
2018-10-19T22:39:20.883Z,9.50
2018-10-19T22:41:54.699Z,9.40
2018-10-19T22:44:33.399Z,9.40
2018-10-19T22:47:07.192Z,9.50
2018-10-19T22:49:40.754Z,9.50
2018-10-19T22:52:14.668Z,9.50
2018-10-19T22:54:48.236Z,9.50
2018-10-19T22:57:21.954Z,9.50
2018-10-19T22:59:55.671Z,9.40
2018-10-19T23:02:29.386Z,9.30
2018-10-19T23:05:03.315Z,9.30
2018-10-19T23:07:37.959Z,9.40
2018-10-19T23:10:11.889Z,9.40
2018-10-19T23:12:45.571Z,9.50
2018-10-19T23:15:19.484Z,9.50
2018-10-19T23:17:53.079Z,9.50
2018-10-19T23:20:26.970Z,9.40
2018-10-19T23:23:00.670Z,9.40
2018-10-19T23:25:34.459Z,9.40
2018-10-19T23:28:08.144Z,9.40
2018-10-19T23:30:42.849Z,9.40
2018-10-19T23:33:21.820Z,9.40
2018-10-19T23:35:55.561Z,9.30
2018-10-19T23:38:29.406Z,9.40
2018-10-19T23:41:03.241Z,9.40
2018-10-19T23:43:36.732Z,9.30
2018-10-19T23:46:10.410Z,9.20
2018-10-19T23:48:44.380Z,9.30
2018-10-19T23:51:18.123Z,9.30
2018-10-19T23:53:51.722Z,9.30
2018-10-19T23:56:26.508Z,9.30
2018-10-19T23:59:00.410Z,9.30
